Time;durP1;ratioP1;P1;durP2;ratioP2;P2;SDS_P1;SDS_P2;PMS_P1;PMS_P2;Temp;Humidity;BMP_temperature;BMP_pressure;BME280_temperature;BME280_humidity;BME280_pressure;Samples;Min_cycle;Max_cycle;Signal;HPM_P1;HPM_P2
2024/03/27 00:00:13;;;;;;;7.80;5.57;;;;;;;9.16;100.00;107643.88;5028272;28;20038;-75
2024/03/27 00:02:38;;;;;;;7.13;5.75;;;;;;;8.80;100.00;107735.00;5028444;28;20467;-74
2024/03/27 00:05:04;;;;;;;6.45;5.60;;;;;;;9.14;100.00;107895.34;5028316;28;20029;-75
2024/03/27 00:07:30;;;;;;;7.95;5.82;;;;;;;9.17;100.00;107829.56;5028459;28;20546;-74
2024/03/27 00:09:55;;;;;;;6.97;5.70;;;;;;;8.57;100.00;107736.78;5010619;28;20025;-74
2024/03/27 00:12:20;;;;;;;6.22;5.30;;;;;;;9.05;100.00;107613.94;5010481;28;20061;-74
2024/03/27 00:14:46;;;;;;;6.72;5.50;;;;;;;9.04;100.00;107693.44;5027835;28;20033;-76
2024/03/27 00:17:11;;;;;;;8.27;6.38;;;;;;;9.02;100.00;107982.97;5010384;28;20029;-74
2024/03/27 00:19:37;;;;;;;7.05;6.30;;;;;;;8.63;100.00;108198.00;5028105;28;20117;-75
2024/03/27 00:22:02;;;;;;;7.28;6.22;;;;;;;8.73;100.00;108353.22;5010221;28;20033;-74
2024/03/27 00:24:31;;;;;;;7.63;5.70;;;;;;;9.06;100.00;108373.97;5027967;28;21423;-74
2024/03/27 00:26:56;;;;;;;7.80;5.82;;;;;;;9.18;100.00;108487.25;5010701;28;20033;-74
2024/03/27 00:29:22;;;;;;;9.82;6.53;;;;;;;9.17;100.00;108561.69;5009756;28;20519;-74
2024/03/27 00:31:49;;;;;;;6.07;5.20;;;;;;;8.47;100.00;108239.25;5027006;28;20037;-74
2024/03/27 00:34:22;;;;;;;7.65;5.65;;;;;;;9.02;100.00;108363.28;5028595;28;20510;-74
2024/03/27 00:36:48;;;;;;;7.05;6.22;;;;;;;9.23;100.00;108014.91;5010265;28;20083;-75
2024/03/27 00:39:13;;;;;;;6.90;6.15;;;;;;;9.18;100.00;107968.66;5026364;28;20033;-73
2024/03/27 00:41:39;;;;;;;7.22;5.97;;;;;;;8.69;100.00;107584.00;5010416;28;20044;-73
2024/03/27 00:44:04;;;;;;;7.75;6.20;;;;;;;9.24;100.00;107328.72;5009699;28;20025;-74
2024/03/27 00:46:30;;;;;;;8.15;6.18;;;;;;;8.42;100.00;107040.53;5029652;28;20025;-73
2024/03/27 00:48:55;;;;;;;8.23;6.20;;;;;;;9.00;100.00;107226.38;5031831;28;20559;-74
2024/03/27 00:51:20;;;;;;;8.27;6.65;;;;;;;8.99;100.00;107056.91;5014999;28;20025;-74
2024/03/27 00:53:46;;;;;;;8.77;6.80;;;;;;;8.91;100.00;106952.06;5032008;28;20030;-73
2024/03/27 00:56:11;;;;;;;7.28;6.38;;;;;;;8.87;100.00;106519.88;5032025;28;20053;-74
2024/03/27 00:58:37;;;;;;;8.63;6.60;;;;;;;8.53;100.00;106334.28;5014321;28;20120;-75
2024/03/27 01:01:02;;;;;;;8.68;6.72;;;;;;;8.73;100.00;106186.97;5031742;28;20143;-74
2024/03/27 01:03:29;;;;;;;7.90;6.88;;;;;;;9.09;100.00;106498.06;5013832;28;20502;-74
2024/03/27 01:05:55;;;;;;;8.65;6.97;;;;;;;9.39;100.00;106866.59;5031218;28;20022;-74
2024/03/27 01:08:20;;;;;;;7.43;6.38;;;;;;;9.18;100.00;107004.47;5031560;28;20045;-79
2024/03/27 01:10:46;;;;;;;7.93;6.80;;;;;;;8.20;100.00;107252.31;5030843;28;20415;-75
2024/03/27 01:13:17;;;;;;;7.80;6.53;;;;;;;8.70;100.00;107623.00;5015850;28;20472;-75
2024/03/27 01:15:53;;;;;;;7.53;4.93;;;;;;;9.03;100.00;108503.25;5032167;28;20083;-75
2024/03/27 01:18:19;;;;;;;10.85;6.57;;;;;;;8.70;100.00;109452.97;5011095;28;20060;-75
2024/03/27 01:20:45;;;;;;;7.75;6.22;;;;;;;8.98;100.00;112962.44;5014810;28;20499;-75
2024/03/27 01:23:11;;;;;;;7.85;6.70;;;;;;;9.34;100.00;113081.38;5032560;28;20040;-77
2024/03/27 01:25:38;;;;;;;8.00;6.43;;;;;;;8.40;100.00;112909.75;5031724;28;20469;-78
2024/03/27 01:28:04;;;;;;;7.72;6.60;;;;;;;9.21;100.00;113064.41;5031981;28;20082;-76
2024/03/27 01:30:30;;;;;;;8.02;6.60;;;;;;;9.29;100.00;113137.19;5030792;28;20041;-76
2024/03/27 01:32:56;;;;;;;8.07;6.07;;;;;;;9.27;100.00;113352.38;5013907;28;20044;-75
2024/03/27 01:35:22;;;;;;;7.35;6.30;;;;;;;8.53;100.00;113370.78;5032043;28;20033;-75
2024/03/27 01:37:48;;;;;;;9.43;7.00;;;;;;;9.04;100.00;113447.16;5031607;28;20040;-75
2024/03/27 01:40:13;;;;;;;8.50;7.05;;;;;;;9.09;100.00;113511.72;5013719;28;20033;-77
2024/03/27 01:42:39;;;;;;;8.55;6.97;;;;;;;9.34;100.00;113880.06;5014651;28;20029;-77
2024/03/27 01:45:04;;;;;;;9.45;6.88;;;;;;;8.71;100.00;113731.50;5031811;28;20116;-76
2024/03/27 01:47:31;;;;;;;9.15;7.32;;;;;;;9.37;100.00;114018.19;5031836;28;20033;-73
2024/03/27 01:49:58;;;;;;;8.82;7.18;;;;;;;8.91;100.00;114134.16;5013396;28;20045;-75
2024/03/27 01:52:24;;;;;;;11.23;7.72;;;;;;;8.63;100.00;114158.97;5013653;28;20025;-75
2024/03/27 01:54:51;;;;;;;8.68;7.72;;;;;;;9.26;100.00;114315.59;5029752;28;20030;-74
2024/03/27 01:57:17;;;;;;;8.40;7.15;;;;;;;9.00;100.00;114227.69;5012785;28;20073;-74
2024/03/27 01:59:44;;;;;;;9.30;7.40;;;;;;;9.19;100.00;114364.28;5031011;28;20068;-75
2024/03/27 02:02:11;;;;;;;11.10;7.90;;;;;;;9.44;100.00;114502.88;5031047;28;20029;-74
2024/03/27 02:04:37;;;;;;;10.63;8.32;;;;;;;9.07;100.00;114320.00;5030688;28;20026;-75
2024/03/27 02:07:03;;;;;;;8.40;7.50;;;;;;;8.84;100.00;114418.56;5030516;28;20044;-74
2024/03/27 02:09:28;;;;;;;8.05;7.18;;;;;;;8.65;100.00;114385.72;5030286;28;20041;-74
2024/03/27 02:11:54;;;;;;;9.10;7.65;;;;;;;8.30;100.00;114390.88;5030963;28;20041;-74
2024/03/27 02:14:20;;;;;;;10.30;7.85;;;;;;;8.82;100.00;114595.44;5010952;28;20533;-74
2024/03/27 02:16:45;;;;;;;9.45;7.53;;;;;;;8.93;100.00;114611.44;5030807;28;20033;-75
2024/03/27 02:19:11;;;;;;;9.70;7.53;;;;;;;9.05;100.00;114512.25;5013047;28;20037;-74
2024/03/27 02:21:37;;;;;;;8.52;7.40;;;;;;;9.44;100.00;113091.69;5012576;28;20427;-74
2024/03/27 02:24:10;;;;;;;8.75;7.05;;;;;;;9.35;100.00;113113.81;4996720;28;20120;-75
2024/03/27 02:26:36;;;;;;;8.07;6.65;;;;;;;9.42;100.00;113077.72;5030517;28;20033;-76
2024/03/27 02:29:03;;;;;;;8.95;6.60;;;;;;;8.81;100.00;112980.25;5030560;28;20126;-76
2024/03/27 02:31:29;;;;;;;8.50;6.32;;;;;;;9.47;100.00;112981.16;5013382;28;20487;-77
2024/03/27 02:33:54;;;;;;;7.57;6.15;;;;;;;9.42;100.00;112869.84;5030049;28;20500;-75
2024/03/27 02:36:20;;;;;;;6.63;5.60;;;;;;;8.92;100.00;112693.16;5012295;28;20080;-75
2024/03/27 02:38:45;;;;;;;8.52;5.95;;;;;;;8.90;100.00;112680.16;5011768;28;20476;-76
2024/03/27 02:41:11;;;;;;;7.97;6.72;;;;;;;8.74;100.00;112567.03;5014624;28;20041;-74
2024/03/27 02:43:36;;;;;;;7.60;6.03;;;;;;;8.89;100.00;112608.66;5020203;28;20040;-75
2024/03/27 02:46:02;;;;;;;8.40;6.30;;;;;;;9.46;100.00;112603.97;5018040;28;20488;-75
2024/03/27 02:48:27;;;;;;;7.95;6.68;;;;;;;9.92;100.00;112705.88;5011982;28;20393;-75
2024/03/27 02:50:53;;;;;;;7.30;6.30;;;;;;;8.95;100.00;112330.88;5028139;28;20029;-74
2024/03/27 02:53:19;;;;;;;8.27;6.85;;;;;;;8.84;100.00;112286.34;5029949;28;20033;-73
2024/03/27 02:55:44;;;;;;;7.45;6.22;;;;;;;8.85;100.00;112250.09;5028755;28;20423;-74
2024/03/27 02:58:10;;;;;;;8.50;6.70;;;;;;;8.20;100.00;112058.78;5012525;28;20014;-74
2024/03/27 03:00:35;;;;;;;7.38;6.38;;;;;;;8.67;100.00;112233.44;5030045;28;20468;-73
2024/03/27 03:03:01;;;;;;;7.78;6.10;;;;;;;8.73;100.00;112323.50;5029837;28;20037;-73
2024/03/27 03:05:26;;;;;;;8.10;5.80;;;;;;;9.33;100.00;112447.13;5011604;28;20025;-74
2024/03/27 03:07:51;;;;;;;6.82;5.68;;;;;;;9.53;100.00;112530.53;5011710;28;20026;-75
2024/03/27 03:10:17;;;;;;;8.15;5.97;;;;;;;8.74;100.00;112244.03;5028980;28;20037;-74
2024/03/27 03:12:43;;;;;;;8.02;6.07;;;;;;;9.55;100.00;112379.91;5029525;28;20128;-75
2024/03/27 03:15:09;;;;;;;7.65;6.40;;;;;;;9.68;100.00;112171.59;5029003;28;20037;-74
2024/03/27 03:17:35;;;;;;;7.82;6.05;;;;;;;9.01;100.00;111833.28;5011715;28;20083;-75
2024/03/27 03:20:02;;;;;;;8.00;6.38;;;;;;;9.64;100.00;111720.97;5011602;28;20033;-74
2024/03/27 03:22:28;;;;;;;7.88;6.88;;;;;;;9.38;100.00;111485.00;5011815;28;20550;-77
2024/03/27 03:24:53;;;;;;;7.15;6.28;;;;;;;9.48;100.00;111406.91;5028970;28;20037;-76
2024/03/27 03:27:19;;;;;;;8.70;7.13;;;;;;;8.71;100.00;111061.13;5029047;28;20033;-76
2024/03/27 03:29:44;;;;;;;8.80;7.00;;;;;;;8.89;100.00;111029.13;5029744;28;20423;-73
2024/03/27 03:32:14;;;;;;;8.43;7.43;;;;;;;8.77;100.00;110851.78;5029348;28;20544;-74
2024/03/27 03:34:40;;;;;;;9.48;6.72;;;;;;;9.30;100.00;110922.03;5011587;28;20041;-74
2024/03/27 03:37:05;;;;;;;7.45;6.03;;;;;;;9.51;100.00;111033.16;5029269;28;20107;-76
2024/03/27 03:39:31;;;;;;;9.40;6.97;;;;;;;9.03;100.00;110887.25;5012188;28;20029;-76
2024/03/27 03:41:58;;;;;;;7.75;6.78;;;;;;;8.85;100.00;110811.59;5012624;28;20025;-76
2024/03/27 03:44:24;;;;;;;9.32;7.20;;;;;;;9.24;100.00;110877.84;5010972;28;20045;-75
2024/03/27 03:46:50;;;;;;;10.13;7.38;;;;;;;9.22;100.00;110895.44;5029332;28;20484;-76
2024/03/27 03:49:15;;;;;;;10.52;8.00;;;;;;;9.44;100.00;111037.06;5029762;28;20038;-76
2024/03/27 03:51:42;;;;;;;9.13;8.10;;;;;;;9.34;100.00;111126.34;5029284;28;20033;-76
2024/03/27 03:54:08;;;;;;;10.32;8.80;;;;;;;9.37;100.00;111230.22;5027655;28;20092;-76
2024/03/27 03:56:33;;;;;;;9.15;7.93;;;;;;;9.24;100.00;111262.03;5029564;28;20053;-76
2024/03/27 03:59:00;;;;;;;10.52;7.90;;;;;;;9.13;100.00;111348.47;5028482;28;20029;-75
2024/03/27 04:01:26;;;;;;;10.82;8.25;;;;;;;8.49;100.00;111348.13;5011103;28;20033;-75
2024/03/27 04:03:52;;;;;;;9.98;8.27;;;;;;;8.67;100.00;111548.53;5028422;28;20076;-76
2024/03/27 04:06:17;;;;;;;9.90;8.55;;;;;;;8.28;100.00;111652.00;5009528;28;20103;-74
2024/03/27 04:08:42;;;;;;;9.93;7.95;;;;;;;9.07;100.00;112095.47;5028291;28;20033;-73
2024/03/27 04:11:08;;;;;;;11.30;8.18;;;;;;;9.12;100.00;112387.28;5027764;28;20029;-74
2024/03/27 04:13:33;;;;;;;10.05;8.48;;;;;;;9.10;100.00;112627.84;5009867;28;20483;-75
2024/03/27 04:16:01;;;;;;;11.35;8.30;;;;;;;9.20;100.00;112781.56;5010266;28;20038;-75
2024/03/27 04:18:27;;;;;;;14.20;9.45;;;;;;;9.36;100.00;112926.34;5009388;28;20130;-75
2024/03/27 04:20:52;;;;;;;11.90;9.63;;;;;;;9.33;100.00;112919.06;5008698;28;20033;-75
2024/03/27 04:23:17;;;;;;;11.25;9.02;;;;;;;9.08;100.00;112952.38;5027692;28;20036;-75
2024/03/27 04:25:50;;;;;;;10.38;9.05;;;;;;;9.27;100.00;113062.13;5010193;28;20589;-74
2024/03/27 04:28:16;;;;;;;12.30;9.82;;;;;;;9.13;100.00;113174.03;5010833;28;20427;-75
2024/03/27 04:30:42;;;;;;;11.93;9.07;;;;;;;9.49;100.00;113457.72;5026116;28;20083;-76
2024/03/27 04:33:09;;;;;;;11.45;9.50;;;;;;;8.85;100.00;113618.84;5007643;28;20102;-74
2024/03/27 04:35:37;;;;;;;11.00;8.65;;;;;;;9.09;100.00;113835.00;5026108;28;20396;-76
2024/03/27 04:38:02;;;;;;;11.05;9.35;;;;;;;9.12;100.00;114045.34;5013457;28;20033;-76
2024/03/27 04:40:28;;;;;;;10.30;8.93;;;;;;;8.51;100.00;114107.09;5012852;28;20045;-73
2024/03/27 04:43:03;;;;;;;11.60;8.90;;;;;;;8.73;100.00;115509.09;5027860;28;20487;-72
2024/03/27 04:45:29;;;;;;;10.00;8.30;;;;;;;9.25;100.00;115923.66;5025652;28;20084;-71
2024/03/27 04:47:54;;;;;;;9.85;8.07;;;;;;;8.91;100.00;114486.38;5025737;28;20132;-74
2024/03/27 04:50:20;;;;;;;11.30;8.27;;;;;;;8.80;100.00;114418.53;5011422;28;20194;-71
2024/03/27 04:52:45;;;;;;;11.25;9.20;;;;;;;8.41;100.00;114151.56;5010665;28;20192;-71
2024/03/27 04:55:10;;;;;;;10.85;9.27;;;;;;;8.77;100.00;114165.31;5009411;28;20550;-72
2024/03/27 04:57:36;;;;;;;10.48;8.80;;;;;;;9.10;100.00;114277.34;5012668;28;20476;-71
2024/03/27 05:00:02;;;;;;;10.85;8.60;;;;;;;9.23;100.00;114391.38;5024986;28;20037;-73
2024/03/27 05:02:27;;;;;;;10.93;8.95;;;;;;;9.31;100.00;114480.53;5026127;28;20033;-73
2024/03/27 05:04:58;;;;;;;10.82;9.23;;;;;;;9.26;100.00;114578.88;5026643;28;20033;-70
2024/03/27 05:07:24;;;;;;;11.70;8.60;;;;;;;8.92;100.00;114529.00;5024889;28;20290;-70
2024/03/27 05:09:49;;;;;;;10.65;8.73;;;;;;;8.98;100.00;114697.38;5025608;28;20037;-71
2024/03/27 05:12:17;;;;;;;9.85;8.15;;;;;;;8.99;100.00;114734.97;5025660;28;20466;-71
2024/03/27 05:14:43;;;;;;;10.75;9.32;;;;;;;9.46;100.00;115088.63;5025054;28;20108;-71
2024/03/27 05:17:08;;;;;;;9.65;8.23;;;;;;;9.37;100.00;115414.28;5025283;28;20179;-70
2024/03/27 05:19:34;;;;;;;9.25;7.82;;;;;;;9.65;100.00;115606.00;5024655;28;20443;-71
2024/03/27 05:22:00;;;;;;;9.02;7.22;;;;;;;9.58;100.00;115623.09;5025783;28;20029;-70
2024/03/27 05:24:26;;;;;;;9.73;7.50;;;;;;;8.97;100.00;115507.72;5024961;28;20056;-69
2024/03/27 05:26:52;;;;;;;11.48;7.45;;;;;;;9.78;100.00;115771.41;5023151;28;20026;-71
2024/03/27 05:29:17;;;;;;;9.63;7.22;;;;;;;9.38;100.00;115645.59;5025529;28;20082;-70
2024/03/27 05:31:54;;;;;;;8.95;7.05;;;;;;;9.39;100.00;115565.94;5024035;28;20060;-70
2024/03/27 05:34:21;;;;;;;9.15;7.20;;;;;;;9.83;100.00;115635.72;5027715;28;20018;-70
2024/03/27 05:36:47;;;;;;;8.38;6.38;;;;;;;9.81;100.00;115651.28;5013447;28;20491;-72
2024/03/27 05:39:13;;;;;;;8.10;6.60;;;;;;;9.26;100.00;115543.38;5015612;28;20041;-70
2024/03/27 05:41:40;;;;;;;7.90;6.20;;;;;;;9.45;100.00;115591.25;5029495;28;20083;-71
2024/03/27 05:44:09;;;;;;;8.27;6.80;;;;;;;9.18;100.00;115530.47;5030680;28;20048;-71
2024/03/27 05:46:34;;;;;;;8.70;7.18;;;;;;;9.92;100.00;115708.28;5029760;28;20483;-71
2024/03/27 05:49:03;;;;;;;8.30;6.13;;;;;;;10.01;100.00;115723.13;5030255;28;20076;-70
2024/03/27 05:51:30;;;;;;;8.68;6.20;;;;;;;10.02;100.00;115766.81;5028624;28;20026;-71
2024/03/27 05:54:00;;;;;;;7.25;6.25;;;;;;;10.06;100.00;115817.94;5030718;28;20566;-71
2024/03/27 05:56:26;;;;;;;8.88;6.63;;;;;;;10.19;100.00;115842.19;5029312;28;20570;-70
2024/03/27 05:58:52;;;;;;;8.85;6.60;;;;;;;9.92;100.00;115716.91;5030297;28;20034;-71
2024/03/27 06:01:18;;;;;;;7.88;6.30;;;;;;;9.67;100.00;115614.00;5012558;28;20029;-71
2024/03/27 06:03:47;;;;;;;8.48;6.53;;;;;;;9.68;100.00;115529.28;5012372;28;20036;-70
2024/03/27 06:06:13;;;;;;;8.52;6.88;;;;;;;9.63;100.00;115405.84;5011094;28;20029;-70
2024/03/27 06:08:38;;;;;;;11.20;7.38;;;;;;;10.47;100.00;115493.06;5029331;28;20557;-73
2024/03/27 06:11:04;;;;;;;8.30;6.65;;;;;;;10.34;100.00;115303.03;5030118;28;20033;-70
2024/03/27 06:13:29;;;;;;;8.82;6.60;;;;;;;10.36;100.00;115168.09;5029020;28;20049;-71
2024/03/27 06:15:54;;;;;;;8.65;7.03;;;;;;;10.46;100.00;115032.59;5029146;28;20068;-70
2024/03/27 06:18:20;;;;;;;8.43;6.75;;;;;;;10.39;100.00;114882.94;5029903;28;20026;-71
2024/03/27 06:20:46;;;;;;;8.40;6.25;;;;;;;10.84;100.00;114562.31;5029645;28;20040;-74
2024/03/27 06:23:11;;;;;;;8.88;6.90;;;;;;;10.74;100.00;112980.97;5029346;28;20090;-70
2024/03/27 06:25:37;;;;;;;8.07;6.80;;;;;;;10.86;100.00;112733.03;5029563;28;20108;-70
2024/03/27 06:28:02;;;;;;;9.00;6.50;;;;;;;10.50;100.00;112471.47;5029668;28;20418;-70
2024/03/27 06:30:29;;;;;;;11.60;7.15;;;;;;;10.69;100.00;112137.19;5012073;28;20466;-71
2024/03/27 06:32:55;;;;;;;9.45;7.00;;;;;;;11.12;100.00;112010.91;5030085;28;20047;-71
2024/03/27 06:35:22;;;;;;;10.48;7.95;;;;;;;11.09;100.00;111744.94;5030927;28;20098;-71
2024/03/27 06:37:48;;;;;;;10.65;7.50;;;;;;;11.09;100.00;111495.69;5031119;28;20044;-71
2024/03/27 06:40:14;;;;;;;10.90;6.88;;;;;;;10.92;100.00;111111.94;5029971;28;20037;-70
2024/03/27 06:42:40;;;;;;;9.32;6.75;;;;;;;10.16;100.00;110314.59;5028173;28;20027;-71
2024/03/27 06:45:06;;;;;;;7.63;6.40;;;;;;;10.47;100.00;110271.38;5028244;28;20033;-70
2024/03/27 06:47:32;;;;;;;9.32;7.78;;;;;;;10.94;100.00;110207.41;5029473;28;20056;-75
2024/03/27 06:49:58;;;;;;;10.00;7.22;;;;;;;10.58;100.00;109253.25;5011870;28;20045;-71
2024/03/27 06:52:23;;;;;;;12.50;7.22;;;;;;;10.64;100.00;109104.50;5011212;28;20029;-71
2024/03/27 06:54:50;;;;;;;11.13;8.10;;;;;;;10.97;100.00;109031.09;5028670;28;20076;-74
2024/03/27 06:57:16;;;;;;;12.40;7.65;;;;;;;9.82;100.00;108530.19;5011394;28;20084;-70
2024/03/27 06:59:41;;;;;;;12.68;8.02;;;;;;;10.55;100.00;108502.03;5011536;28;20033;-71
2024/03/27 07:02:06;;;;;;;12.88;8.57;;;;;;;11.01;100.00;108370.25;5029430;28;20116;-71
2024/03/27 07:04:32;;;;;;;11.48;8.23;;;;;;;10.96;100.00;108006.81;5012063;28;20492;-70
2024/03/27 07:06:58;;;;;;;11.50;8.38;;;;;;;10.95;100.00;107854.63;5029102;28;20137;-70
2024/03/27 07:09:25;;;;;;;14.15;8.60;;;;;;;10.56;100.00;107634.19;5028598;28;20064;-71
2024/03/27 07:11:51;;;;;;;12.00;7.72;;;;;;;10.89;100.00;106230.72;5027165;28;20576;-72
2024/03/27 07:14:16;;;;;;;10.13;7.88;;;;;;;11.41;100.00;105034.47;5011294;28;20059;-70
2024/03/27 07:16:43;;;;;;;10.43;7.10;;;;;;;11.36;100.00;104649.34;5028332;28;20056;-71
2024/03/27 07:19:09;;;;;;;11.30;7.13;;;;;;;11.26;100.00;104619.19;5029043;28;20041;-70
2024/03/27 07:21:36;;;;;;;10.02;7.70;;;;;;;10.47;100.00;104355.09;5027343;28;20029;-72
2024/03/27 07:24:01;;;;;;;10.77;7.65;;;;;;;10.97;100.00;104309.69;5029041;28;20037;-70
2024/03/27 07:26:27;;;;;;;11.50;8.00;;;;;;;11.03;100.00;104383.81;5027885;28;20545;-74
2024/03/27 07:28:52;;;;;;;12.40;8.50;;;;;;;10.64;100.00;104155.59;5027720;28;20032;-70
2024/03/27 07:31:18;;;;;;;12.23;8.27;;;;;;;11.20;100.00;104280.94;5011042;28;20040;-71
2024/03/27 07:33:43;;;;;;;11.45;7.30;;;;;;;11.21;100.00;104345.50;5029109;28;20026;-70
2024/03/27 07:36:08;;;;;;;9.13;7.63;;;;;;;11.45;100.00;104310.75;5027529;28;20099;-70
2024/03/27 07:38:34;;;;;;;9.73;7.70;;;;;;;11.17;100.00;104218.81;5028613;28;20032;-71
2024/03/27 07:40:59;;;;;;;10.20;8.10;;;;;;;10.91;100.00;103588.03;5028277;28;20812;-72
2024/03/27 07:43:25;;;;;;;9.60;7.90;;;;;;;11.11;100.00;103612.38;5028260;28;20033;-70
2024/03/27 07:45:50;;;;;;;11.25;8.52;;;;;;;10.73;100.00;103529.81;5028383;28;20041;-71
2024/03/27 07:48:15;;;;;;;10.63;8.13;;;;;;;11.14;100.00;103542.00;5010734;28;20397;-71
2024/03/27 07:50:41;;;;;;;9.88;7.80;;;;;;;11.11;100.00;103474.84;5010353;28;20029;-70
2024/03/27 07:53:06;;;;;;;10.98;8.45;;;;;;;11.12;100.00;103469.78;5010300;28;20439;-70
2024/03/27 07:55:31;;;;;;;11.88;9.30;;;;;;;11.09;100.00;103458.69;5028051;28;20420;-72
2024/03/27 07:57:57;;;;;;;14.27;10.02;;;;;;;11.22;100.00;103430.13;5028504;28;20051;-71
2024/03/27 08:00:22;;;;;;;12.18;10.27;;;;;;;11.17;100.00;103412.19;5028502;28;20077;-70
2024/03/27 08:02:48;;;;;;;17.17;11.50;;;;;;;11.04;100.00;103355.81;5026545;28;20037;-71
2024/03/27 08:05:13;;;;;;;15.25;10.93;;;;;;;11.26;100.00;103341.09;5029053;28;20079;-71
2024/03/27 08:07:39;;;;;;;14.55;9.82;;;;;;;11.50;100.00;103310.22;5032175;28;20029;-71
2024/03/27 08:10:05;;;;;;;14.95;9.88;;;;;;;11.17;100.00;103340.03;5028416;28;20029;-71
2024/03/27 08:12:31;;;;;;;14.45;9.88;;;;;;;11.02;100.00;103332.00;5026428;28;20037;-74
2024/03/27 08:14:57;;;;;;;12.32;9.63;;;;;;;11.52;100.00;103456.38;5025112;28;20037;-70
2024/03/27 08:17:22;;;;;;;11.90;9.27;;;;;;;11.63;100.00;103490.63;5027536;28;20029;-70
2024/03/27 08:19:48;;;;;;;14.68;9.90;;;;;;;11.50;100.00;103440.19;5027011;28;20080;-71
2024/03/27 08:22:13;;;;;;;14.68;10.10;;;;;;;11.74;100.00;103471.41;5027729;28;20033;-71
2024/03/27 08:24:39;;;;;;;11.93;8.63;;;;;;;10.97;100.00;103346.31;5027917;28;20030;-70
2024/03/27 08:27:05;;;;;;;10.90;7.97;;;;;;;11.32;100.00;103404.06;5027118;28;20501;-70
2024/03/27 08:29:31;;;;;;;13.98;8.32;;;;;;;11.61;100.00;103328.28;5027185;28;20060;-70
2024/03/27 08:32:00;;;;;;;11.35;8.10;;;;;;;11.70;100.00;103179.00;5027973;28;20060;-70
2024/03/27 08:34:27;;;;;;;13.27;8.90;;;;;;;12.28;100.00;103237.00;5009528;28;20021;-70
2024/03/27 08:36:54;;;;;;;11.43;8.85;;;;;;;11.67;100.00;102911.31;5027187;28;20057;-69
2024/03/27 08:39:20;;;;;;;10.43;8.13;;;;;;;12.12;100.00;102741.06;5028561;28;20057;-71
2024/03/27 08:41:47;;;;;;;12.80;9.18;;;;;;;11.98;100.00;102614.28;5010023;28;20488;-71
2024/03/27 08:44:17;;;;;;;12.85;8.85;;;;;;;12.53;100.00;102717.63;5009296;28;20504;-71
2024/03/27 08:46:43;;;;;;;11.27;8.93;;;;;;;11.82;100.00;102304.03;5027369;28;20033;-71
2024/03/27 08:49:13;;;;;;;16.15;10.85;;;;;;;11.81;100.00;102168.09;5019052;28;20045;-74
2024/03/27 08:51:39;;;;;;;12.90;9.60;;;;;;;11.94;100.00;102411.97;5008062;28;20124;-71
2024/03/27 08:54:05;;;;;;;11.57;8.68;;;;;;;11.82;100.00;102355.88;5027472;28;20026;-71
2024/03/27 08:56:30;;;;;;;11.75;8.48;;;;;;;11.60;100.00;102308.13;5017099;28;20431;-70
2024/03/27 08:58:55;;;;;;;11.38;9.02;;;;;;;12.25;100.00;102445.31;5027282;28;20484;-72
2024/03/27 09:01:21;;;;;;;13.15;10.15;;;;;;;12.00;100.00;102372.94;5027388;28;20030;-70
2024/03/27 09:03:47;;;;;;;15.50;9.30;;;;;;;11.92;100.00;102357.59;5026186;28;20103;-70
2024/03/27 09:06:13;;;;;;;16.60;10.45;;;;;;;12.63;100.00;102382.50;5027624;28;20030;-74
2024/03/27 09:08:39;;;;;;;17.17;11.90;;;;;;;12.05;100.00;102188.53;5030584;28;20041;-72
2024/03/27 09:11:07;;;;;;;17.65;9.25;;;;;;;11.60;100.00;102057.59;5018888;28;20033;-71
2024/03/27 09:13:33;;;;;;;14.25;9.48;;;;;;;12.46;100.00;102150.28;5013569;28;20566;-70
2024/03/27 09:15:59;;;;;;;11.65;8.68;;;;;;;12.77;100.00;102181.75;5031253;28;20038;-70
2024/03/27 09:18:25;;;;;;;12.77;8.88;;;;;;;12.46;100.00;101825.44;5012658;28;20030;-70
2024/03/27 09:20:52;;;;;;;12.60;8.23;;;;;;;12.62;100.00;101860.19;5013271;28;20497;-70
2024/03/27 09:23:17;;;;;;;11.00;8.73;;;;;;;12.92;100.00;101793.63;5011951;28;20040;-69
2024/03/27 09:25:42;;;;;;;13.40;8.60;;;;;;;14.01;100.00;101669.72;5030921;28;20029;-70
2024/03/27 09:28:09;;;;;;;13.80;10.30;;;;;;;13.67;100.00;101785.22;5030178;28;20060;-70
2024/03/27 09:30:34;;;;;;;12.57;8.70;;;;;;;13.82;100.00;101871.16;5030899;28;20083;-71
2024/03/27 09:33:00;;;;;;;11.90;8.88;;;;;;;13.49;100.00;101718.16;5030529;28;20061;-70
2024/03/27 09:35:25;;;;;;;12.13;8.80;;;;;;;14.51;100.00;101636.53;5030087;28;20197;-70
2024/03/27 09:37:50;;;;;;;11.05;8.25;;;;;;;13.74;100.00;101380.41;5012571;28;20041;-70
2024/03/27 09:40:16;;;;;;;13.57;8.20;;;;;;;14.84;100.00;101291.94;5030241;28;20025;-70
2024/03/27 09:42:42;;;;;;;11.77;7.95;;;;;;;15.14;100.00;101143.44;5032354;28;20103;-70
2024/03/27 09:45:10;;;;;;;10.38;7.97;;;;;;;14.84;100.00;100972.72;5032154;28;20038;-69
2024/03/27 09:47:38;;;;;;;10.02;8.32;;;;;;;14.58;100.00;100627.13;5011493;28;20037;-69
2024/03/27 09:50:05;;;;;;;12.80;7.95;;;;;;;15.00;100.00;100600.03;5030825;28;20021;-69
2024/03/27 09:52:33;;;;;;;11.68;8.32;;;;;;;15.31;100.00;100413.53;5011944;28;20037;-70
2024/03/27 09:54:59;;;;;;;9.85;8.48;;;;;;;14.73;100.00;100345.91;5030192;28;20041;-70
2024/03/27 09:57:25;;;;;;;15.68;9.00;;;;;;;14.94;100.00;100318.59;5030940;28;20061;-69
2024/03/27 09:59:51;;;;;;;10.88;7.68;;;;;;;14.31;100.00;100295.53;5030722;28;20049;-69
2024/03/27 10:02:17;;;;;;;11.68;7.90;;;;;;;15.19;100.00;100290.28;5012146;28;20037;-70
2024/03/27 10:04:44;;;;;;;10.25;7.15;;;;;;;15.19;100.00;100150.22;5013202;28;20021;-70
2024/03/27 10:07:09;;;;;;;11.90;8.20;;;;;;;15.14;100.00;100084.72;5029299;28;20047;-70
2024/03/27 10:09:35;;;;;;;10.57;8.27;;;;;;;14.66;100.00;100068.06;5029711;28;20029;-70
2024/03/27 10:12:00;;;;;;;9.88;7.93;;;;;;;15.52;100.00;99968.53;5012026;28;20855;-68
2024/03/27 10:14:26;;;;;;;11.25;8.43;;;;;;;15.18;100.00;99877.09;5029893;28;20538;-70
2024/03/27 10:16:51;;;;;;;10.23;7.82;;;;;;;15.75;100.00;99840.06;5029414;28;20407;-70
2024/03/27 10:19:17;;;;;;;8.88;7.40;;;;;;;16.26;100.00;99767.25;5028625;28;20099;-70
2024/03/27 10:21:43;;;;;;;12.10;8.30;;;;;;;16.26;100.00;99687.75;5029682;28;20029;-69
2024/03/27 10:24:09;;;;;;;10.13;7.72;;;;;;;16.73;100.00;99602.91;5030024;28;20025;-72
2024/03/27 10:26:34;;;;;;;9.90;7.85;;;;;;;16.81;100.00;99468.03;4676524;28;10000217;-70
2024/03/27 10:29:00;;;;;;;11.40;7.63;;;;;;;16.75;100.00;99496.66;5026031;28;20056;-69
2024/03/27 10:31:26;;;;;;;10.30;8.07;;;;;;;16.13;100.00;99484.97;5024650;28;20033;-70
2024/03/27 10:33:52;;;;;;;10.35;7.43;;;;;;;15.82;100.00;99469.72;5027735;28;20032;-71
2024/03/27 10:36:26;;;;;;;10.93;8.23;;;;;;;16.20;100.00;99472.59;5028262;28;20091;-71
2024/03/27 10:38:57;;;;;;;10.20;7.85;;;;;;;15.81;100.00;99459.53;5009222;28;20029;-70
2024/03/27 10:41:26;;;;;;;;;;;;;;;16.98;100.00;99408.72;5027565;28;20032;-71
2024/03/27 10:44:03;;;;;;;11.18;7.63;;;;;;;17.63;100.00;99371.06;5026087;28;19920;-71
2024/03/27 10:46:32;;;;;;;8.00;7.13;;;;;;;16.35;100.00;99392.16;5028809;28;20033;-71
2024/03/27 10:49:00;;;;;;;8.23;7.40;;;;;;;16.38;100.00;99261.13;5026950;28;20029;-75
2024/03/27 10:51:26;;;;;;;12.05;8.50;;;;;;;16.19;100.00;99258.06;5028723;28;20041;-70
2024/03/27 10:53:54;;;;;;;9.90;7.68;;;;;;;16.40;100.00;99280.63;5027628;28;20029;-71
2024/03/27 10:56:20;;;;;;;9.40;7.65;;;;;;;17.00;100.00;99278.47;5028214;28;20508;-75
2024/03/27 10:58:49;;;;;;;9.85;7.80;;;;;;;16.44;100.00;99183.75;5029134;28;20075;-72
2024/03/27 11:01:14;;;;;;;10.90;7.43;;;;;;;16.87;100.00;99259.66;5028969;28;20026;-71
2024/03/27 11:03:41;;;;;;;9.73;7.47;;;;;;;16.86;100.00;99169.88;5029367;28;20087;-70
2024/03/27 11:06:08;;;;;;;8.95;7.00;;;;;;;17.22;100.00;99224.75;5017319;28;20504;-70
2024/03/27 11:08:35;;;;;;;12.00;7.18;;;;;;;16.97;100.00;99241.91;5029080;28;20029;-70
2024/03/27 11:11:05;;;;;;;9.80;7.50;;;;;;;17.34;100.00;99217.97;5029088;28;20104;-71
2024/03/27 11:13:31;;;;;;;10.45;8.02;;;;;;;15.84;100.00;99196.16;5028390;28;20487;-72